Blue Ridge Highway — 3FEY4 — position and weather

sailwx.info

Track history (hours):
 
Tides and Currents Weather Stations Pressure Air Temp Water Temp Dewpoint Dewpoint Depression Visibility Wind Speed Wind Dir Waves Ship Positions

Blue Ridge Highway

Last reported at 2017-Feb-21 00:32 UTC. Time now 2017-Feb-21 01:22 UTC.
Position N 53°34' E 008°34'.

Length 180 m; draft 8.1 m.

Type: Cargo ship. MMSI: 355558000.

Date/timePositionNaut miles runAvg speedWind from/ knotsBaromVisibWave heightAir tempDewpointWater temp
2017-Feb-21 00:32N 53°34' E 008°34'0 0.0
2017-Feb-20 23:32N 53°34' E 008°34'0 0.0
2017-Feb-20 22:32N 53°34' E 008°34'0 0.0
2017-Feb-20 21:32N 53°34' E 008°34'0 0.0
2017-Feb-20 20:32N 53°34' E 008°34'0 0.0
2017-Feb-20 19:32N 53°34' E 008°34'0 0.0
2017-Feb-20 18:32N 53°34' E 008°34'0 0.0
2017-Feb-20 17:32N 53°34' E 008°34'0 0.2
2017-Feb-20 16:33N 53°34' E 008°34'0 0.5
2017-Feb-20 15:33N 53°33' E 008°33'1413.8
2017-Feb-20 14:33N 53°43' E 008°17'1717.2
2017-Feb-20 13:33N 53°52' E 007°52'10 9.8
2017-Feb-20 12:31N 53°55' E 007°35'9815.8
2017-Feb-20 06:20N 53°28' E 004°57'1814.4
2017-Feb-20 05:04N 53°15' E 004°35'815.5
2017-Feb-20 04:33N 53°08' E 004°29'1515.5
2017-Feb-20 03:33N 52°54' E 004°17'1515.4
2017-Feb-20 02:33N 52°42' E 004°01'1615.7
2017-Feb-20 01:33N 52°31' E 003°43'5516.1
2017-Feb-19 22:08N 51°48' E 002°47'1016.8
2017-Feb-19 21:33N 51°39' E 002°43'1615.7
2017-Feb-19 20:33N 51°23' E 002°45'1212.1
2017-Feb-19 19:33N 51°24' E 003°04'7 6.9
2017-Feb-19 18:33N 51°20' E 003°13'2 1.6
2017-Feb-19 17:33N 51°19' E 003°14'0 0.0
2017-Feb-19 16:33N 51°19' E 003°14'0 0.0
2017-Feb-19 15:33N 51°19' E 003°14'0 0.0
2017-Feb-19 14:30N 51°19' E 003°14'0 0.0
2017-Feb-19 13:33N 51°19' E 003°14'0 0.0
2017-Feb-19 12:33N 51°19' E 003°14'0 0.0
2017-Feb-19 11:33N 51°19' E 003°14'0 0.0
2017-Feb-19 10:33N 51°19' E 003°14'0 0.0
2017-Feb-19 09:33N 51°19' E 003°14'0 0.0
2017-Feb-19 08:33N 51°19' E 003°14'0 0.0
2017-Feb-19 07:33N 51°19' E 003°14'0 0.0
2017-Feb-19 06:33N 51°19' E 003°14'0 0.0
2017-Feb-19 05:33N 51°19' E 003°14'0 0.0
2017-Feb-19 04:33N 51°19' E 003°14'2 1.5
2017-Feb-19 03:33N 51°20' E 003°13'1 1.3
2017-Feb-19 02:34N 51°21' E 003°12'9 8.7
2017-Feb-19 01:33N 51°23' E 002°58'1212.0
2017-Feb-19 00:34N 51°22' E 002°39'5 4.8
2017-Feb-18 23:33N 51°22' E 002°31'5 5.0
2017-Feb-18 22:33N 51°20' E 002°24'8 8.4
2017-Feb-18 21:34N 51°16' E 002°12'9 9.1
2017-Feb-18 20:33N 51°12' E 001°60'1010.4
2017-Feb-18 19:33N 51°06' E 001°46'1817.5
2017-Feb-18 18:33N 50°53' E 001°27'1717.2
2017-Feb-18 17:33N 50°38' E 001°15'2016.6
2017-Feb-18 16:21N 50°28' E 000°47'1316.8
2017-Feb-18 15:33N 50°24' E 000°27'1717.2
2017-Feb-18 14:33N 50°19' E 000°01'1817.9
2017-Feb-18 13:33N 50°15' W 000°26'1818.4
2017-Feb-18 12:33N 50°10' W 000°54'1818.5
2017-Feb-18 11:33N 50°05' W 001°21'1818.0
2017-Feb-18 10:33N 50°00' W 001°49'1717.3
2017-Feb-18 09:33N 49°55' W 002°14'1616.2
2017-Feb-18 08:33N 49°52' W 002°39'1615.8
2017-Feb-18 07:33N 49°45' W 003°01'1615.8
2017-Feb-18 06:33N 49°37' W 003°22'1915.8
2017-Feb-18 05:20N 49°28' W 003°48'1215.7
2017-Feb-18 04:33N 49°21' W 004°04'1915.5
2017-Feb-18 03:18N 49°12' W 004°30'1215.5
2017-Feb-18 02:33N 49°06' W 004°45'1515.5
2017-Feb-18 01:33N 48°58' W 005°05'1615.5
2017-Feb-18 00:33N 48°50' W 005°26'1515.2
2017-Feb-17 23:33N 48°39' W 005°42'1916.1
2017-Feb-17 22:21N 48°22' W 005°54'1516.4
2017-Feb-17 21:28N 48°09' W 006°05'53616.1
2017-Feb-16 12:17N 39°39' W 009°51'1516.6
2017-Feb-16 11:24N 39°24' W 009°51'1416.4
2017-Feb-16 10:33N 39°11' W 009°51'1616.2
2017-Feb-16 09:33N 38°54' W 009°52'1616.0
2017-Feb-16 08:33N 38°38' W 009°51'1716.8
2017-Feb-16 07:33N 38°22' W 009°46'1716.7
2017-Feb-16 06:33N 38°06' W 009°41'1716.5
2017-Feb-16 05:33N 37°50' W 009°36'1616.5
2017-Feb-16 04:33N 37°34' W 009°31'21115.1
2017-Feb-15 14:33N 35°58' W 005°37'1616.2
2017-Feb-15 13:33N 36°02' W 005°18'1615.6
2017-Feb-15 12:33N 36°03' W 004°58'30116.5
2017-Feb-14 18:21N 36°48' E 001°11'  
2017-Feb-12 13:06N 36°26' E 013°50'916.2
2017-Feb-12 12:33N 36°22' E 013°60'1616.4
2017-Feb-12 11:33N 36°15' E 014°18'1616.2
2017-Feb-12 10:33N 36°08' E 014°36'1616.0
2017-Feb-12 09:33N 36°02' E 014°55'  
Track history (hours):
 
Tides and Currents Weather Stations Pressure Air Temp Water Temp Dewpoint Dewpoint Depression Visibility Wind Speed Wind Dir Waves Ship Positions

Blue Ridge Highway

Last reported at 2017-Feb-21 00:32 UTC. Time now 2017-Feb-21 01:22 UTC.
Position N 53°34' E 008°34'.

Length 180 m; draft 8.1 m.

Type: Cargo ship. MMSI: 355558000.

Date/timePositionNaut miles runAvg speedWind from/ knotsBaromVisibWave heightAir tempDewpointWater temp
2017-Feb-21 00:32N 53°34' E 008°34'0 0.0
2017-Feb-20 23:32N 53°34' E 008°34'0 0.0
2017-Feb-20 22:32N 53°34' E 008°34'0 0.0
2017-Feb-20 21:32N 53°34' E 008°34'0 0.0
2017-Feb-20 20:32N 53°34' E 008°34'0 0.0
2017-Feb-20 19:32N 53°34' E 008°34'0 0.0
2017-Feb-20 18:32N 53°34' E 008°34'0 0.0
2017-Feb-20 17:32N 53°34' E 008°34'0 0.2
2017-Feb-20 16:33N 53°34' E 008°34'0 0.5
2017-Feb-20 15:33N 53°33' E 008°33'1413.8
2017-Feb-20 14:33N 53°43' E 008°17'1717.2
2017-Feb-20 13:33N 53°52' E 007°52'10 9.8
2017-Feb-20 12:31N 53°55' E 007°35'9815.8
2017-Feb-20 06:20N 53°28' E 004°57'1814.4
2017-Feb-20 05:04N 53°15' E 004°35'815.5
2017-Feb-20 04:33N 53°08' E 004°29'1515.5
2017-Feb-20 03:33N 52°54' E 004°17'1515.4
2017-Feb-20 02:33N 52°42' E 004°01'1615.7
2017-Feb-20 01:33N 52°31' E 003°43'5516.1
2017-Feb-19 22:08N 51°48' E 002°47'1016.8
2017-Feb-19 21:33N 51°39' E 002°43'1615.7
2017-Feb-19 20:33N 51°23' E 002°45'1212.1
2017-Feb-19 19:33N 51°24' E 003°04'7 6.9
2017-Feb-19 18:33N 51°20' E 003°13'2 1.6
2017-Feb-19 17:33N 51°19' E 003°14'0 0.0
2017-Feb-19 16:33N 51°19' E 003°14'0 0.0
2017-Feb-19 15:33N 51°19' E 003°14'0 0.0
2017-Feb-19 14:30N 51°19' E 003°14'0 0.0
2017-Feb-19 13:33N 51°19' E 003°14'0 0.0
2017-Feb-19 12:33N 51°19' E 003°14'0 0.0
2017-Feb-19 11:33N 51°19' E 003°14'0 0.0
2017-Feb-19 10:33N 51°19' E 003°14'0 0.0
2017-Feb-19 09:33N 51°19' E 003°14'0 0.0
2017-Feb-19 08:33N 51°19' E 003°14'0 0.0
2017-Feb-19 07:33N 51°19' E 003°14'0 0.0
2017-Feb-19 06:33N 51°19' E 003°14'0 0.0
2017-Feb-19 05:33N 51°19' E 003°14'0 0.0
2017-Feb-19 04:33N 51°19' E 003°14'2 1.5
2017-Feb-19 03:33N 51°20' E 003°13'1 1.3
2017-Feb-19 02:34N 51°21' E 003°12'9 8.7
2017-Feb-19 01:33N 51°23' E 002°58'1212.0
2017-Feb-19 00:34N 51°22' E 002°39'5 4.8
2017-Feb-18 23:33N 51°22' E 002°31'5 5.0
2017-Feb-18 22:33N 51°20' E 002°24'8 8.4
2017-Feb-18 21:34N 51°16' E 002°12'9 9.1
2017-Feb-18 20:33N 51°12' E 001°60'1010.4
2017-Feb-18 19:33N 51°06' E 001°46'1817.5
2017-Feb-18 18:33N 50°53' E 001°27'1717.2
2017-Feb-18 17:33N 50°38' E 001°15'2016.6
2017-Feb-18 16:21N 50°28' E 000°47'1316.8
2017-Feb-18 15:33N 50°24' E 000°27'1717.2
2017-Feb-18 14:33N 50°19' E 000°01'1817.9
2017-Feb-18 13:33N 50°15' W 000°26'1818.4
2017-Feb-18 12:33N 50°10' W 000°54'1818.5
2017-Feb-18 11:33N 50°05' W 001°21'1818.0
2017-Feb-18 10:33N 50°00' W 001°49'1717.3
2017-Feb-18 09:33N 49°55' W 002°14'1616.2
2017-Feb-18 08:33N 49°52' W 002°39'1615.8
2017-Feb-18 07:33N 49°45' W 003°01'1615.8
2017-Feb-18 06:33N 49°37' W 003°22'1915.8
2017-Feb-18 05:20N 49°28' W 003°48'1215.7
2017-Feb-18 04:33N 49°21' W 004°04'1915.5
2017-Feb-18 03:18N 49°12' W 004°30'1215.5
2017-Feb-18 02:33N 49°06' W 004°45'1515.5
2017-Feb-18 01:33N 48°58' W 005°05'1615.5
2017-Feb-18 00:33N 48°50' W 005°26'1515.2
2017-Feb-17 23:33N 48°39' W 005°42'1916.1
2017-Feb-17 22:21N 48°22' W 005°54'1516.4
2017-Feb-17 21:28N 48°09' W 006°05'53616.1
2017-Feb-16 12:17N 39°39' W 009°51'1516.6
2017-Feb-16 11:24N 39°24' W 009°51'1416.4
2017-Feb-16 10:33N 39°11' W 009°51'1616.2
2017-Feb-16 09:33N 38°54' W 009°52'1616.0
2017-Feb-16 08:33N 38°38' W 009°51'1716.8
2017-Feb-16 07:33N 38°22' W 009°46'1716.7
2017-Feb-16 06:33N 38°06' W 009°41'1716.5
2017-Feb-16 05:33N 37°50' W 009°36'1616.5
2017-Feb-16 04:33N 37°34' W 009°31'21115.1
2017-Feb-15 14:33N 35°58' W 005°37'1616.2
2017-Feb-15 13:33N 36°02' W 005°18'1615.6
2017-Feb-15 12:33N 36°03' W 004°58'30116.5
2017-Feb-14 18:21N 36°48' E 001°11'  
2017-Feb-12 13:06N 36°26' E 013°50'916.2
2017-Feb-12 12:33N 36°22' E 013°60'1616.4
2017-Feb-12 11:33N 36°15' E 014°18'1616.2
2017-Feb-12 10:33N 36°08' E 014°36'1616.0
2017-Feb-12 09:33N 36°02' E 014°55'  

Dump ship's entire track history